createdAt,value
2024-02-26T00:01:52.381Z,78.14
2024-02-26T00:04:55.364Z,78.21
2024-02-26T00:07:57.542Z,78.82
2024-02-26T00:11:00.204Z,79.41
2024-02-26T00:14:02.866Z,78.99
2024-02-26T00:17:05.461Z,78.96
2024-02-26T00:20:11.212Z,79.12
2024-02-26T00:23:16.590Z,79.04
2024-02-26T00:26:18.690Z,79.12
2024-02-26T00:29:21.468Z,79.35
2024-02-26T00:32:23.716Z,79.22
2024-02-26T00:35:26.344Z,79.37
2024-02-26T00:38:28.572Z,79.18
2024-02-26T00:41:31.826Z,79.21
2024-02-26T00:44:34.057Z,79.58
2024-02-26T00:47:36.809Z,79.11
2024-02-26T00:50:39.329Z,79.06
2024-02-26T00:53:42.238Z,79.07
2024-02-26T00:56:44.400Z,78.75
2024-02-26T00:59:47.057Z,78.53
2024-02-26T01:02:49.529Z,78.16
2024-02-26T01:05:55.784Z,78.50
2024-02-26T01:08:59.947Z,78.81
2024-02-26T01:12:04.135Z,78.81
2024-02-26T01:15:07.147Z,79.04
2024-02-26T01:18:10.723Z,78.94
2024-02-26T01:21:13.630Z,78.92
2024-02-26T01:24:16.999Z,78.57
2024-02-26T01:27:19.436Z,79.01
2024-02-26T01:30:22.744Z,79.30
2024-02-26T01:33:25.380Z,79.07
2024-02-26T01:36:28.225Z,78.91
2024-02-26T01:39:31.512Z,78.99
2024-02-26T01:42:34.508Z,79.24
2024-02-26T01:45:36.758Z,79.72
2024-02-26T01:48:39.468Z,79.51
2024-02-26T01:51:43.302Z,79.46
2024-02-26T01:54:47.532Z,79.24
2024-02-26T01:57:53.261Z,79.21
2024-02-26T02:00:55.906Z,79.77
2024-02-26T02:04:00.446Z,80.05
2024-02-26T02:07:03.881Z,80.32
2024-02-26T02:10:06.954Z,80.44
2024-02-26T02:13:09.715Z,80.28
2024-02-26T02:16:12.131Z,80.22
2024-02-26T02:19:15.090Z,80.44
2024-02-26T02:22:17.253Z,80.47
2024-02-26T02:25:20.085Z,80.71
2024-02-26T02:28:23.443Z,80.68
2024-02-26T02:31:26.519Z,80.64
2024-02-26T02:34:30.823Z,80.71
2024-02-26T02:37:33.299Z,80.37
2024-02-26T02:40:35.679Z,80.48
2024-02-26T02:43:38.158Z,80.39
2024-02-26T02:46:40.576Z,80.45
2024-02-26T02:49:43.180Z,80.72
2024-02-26T02:52:45.464Z,80.70
2024-02-26T02:55:48.383Z,80.84
2024-02-26T02:58:50.610Z,81.04
2024-02-26T03:01:53.812Z,80.75
2024-02-26T03:04:56.310Z,80.95
2024-02-26T03:07:59.216Z,80.64
2024-02-26T03:11:01.592Z,80.61
2024-02-26T03:14:04.343Z,80.42
2024-02-26T03:17:06.579Z,80.54
2024-02-26T03:20:10.799Z,80.64
2024-02-26T03:23:16.118Z,80.40
2024-02-26T03:26:18.687Z,80.45
2024-02-26T03:29:20.897Z,80.70
2024-02-26T03:32:23.657Z,81.02
2024-02-26T03:35:25.985Z,80.79
2024-02-26T03:38:30.135Z,80.41
2024-02-26T03:41:33.695Z,80.84
2024-02-26T03:44:36.336Z,80.67
2024-02-26T03:47:42.290Z,81.36
2024-02-26T03:50:45.029Z,80.63
2024-02-26T03:53:47.586Z,80.93
2024-02-26T03:56:50.448Z,81.00
2024-02-26T03:59:52.751Z,81.47
2024-02-26T04:02:55.317Z,81.51
2024-02-26T04:05:57.910Z,81.50
2024-02-26T04:09:00.690Z,81.44
2024-02-26T04:12:03.092Z,81.31
2024-02-26T04:15:06.478Z,81.49
2024-02-26T04:18:09.854Z,81.38
2024-02-26T04:21:12.585Z,81.32
2024-02-26T04:24:14.759Z,81.33
2024-02-26T04:27:18.158Z,81.32
2024-02-26T04:30:20.548Z,81.39
2024-02-26T04:33:23.912Z,81.41
2024-02-26T04:36:27.498Z,81.56
2024-02-26T04:39:30.092Z,81.22
2024-02-26T04:42:32.690Z,81.73
2024-02-26T04:45:35.681Z,81.44
2024-02-26T04:48:38.054Z,81.69
2024-02-26T04:51:41.129Z,81.56
2024-02-26T04:54:43.621Z,81.12
2024-02-26T04:57:46.440Z,81.37
2024-02-26T05:00:48.770Z,81.28
2024-02-26T05:03:51.488Z,81.06
2024-02-26T05:06:54.909Z,81.28
2024-02-26T05:09:58.570Z,81.43
2024-02-26T05:13:00.765Z,81.44
2024-02-26T05:16:04.232Z,81.55
2024-02-26T05:19:07.674Z,81.50
2024-02-26T05:22:10.462Z,81.50
2024-02-26T05:25:12.684Z,81.37
2024-02-26T05:28:16.841Z,81.80
2024-02-26T05:31:20.045Z,82.04
2024-02-26T05:34:23.651Z,82.02
2024-02-26T05:37:25.893Z,82.21
2024-02-26T05:40:28.365Z,82.43
2024-02-26T05:43:31.078Z,82.73
2024-02-26T05:46:35.824Z,82.80
2024-02-26T05:49:37.961Z,82.78
2024-02-26T05:52:42.349Z,82.61
2024-02-26T05:55:44.414Z,82.61
2024-02-26T05:58:47.455Z,82.50
2024-02-26T06:01:49.614Z,82.57
2024-02-26T06:04:52.351Z,82.90
2024-02-26T06:07:54.469Z,82.51
2024-02-26T06:10:57.052Z,82.59
2024-02-26T06:14:02.351Z,82.48
2024-02-26T06:17:06.708Z,82.53
2024-02-26T06:20:13.393Z,82.58
2024-02-26T06:23:16.384Z,82.51
2024-02-26T06:26:19.320Z,82.50
2024-02-26T06:29:22.046Z,82.39
2024-02-26T06:32:24.482Z,82.13
2024-02-26T06:35:27.437Z,82.29
2024-02-26T06:38:29.599Z,82.60
2024-02-26T06:41:32.532Z,82.50
2024-02-26T06:44:35.058Z,82.53
2024-02-26T06:47:38.241Z,82.49
2024-02-26T06:50:40.514Z,82.55
2024-02-26T06:53:44.152Z,82.46
2024-02-26T06:56:48.509Z,82.52
2024-02-26T06:59:51.390Z,82.27
2024-02-26T07:02:53.670Z,82.44
2024-02-26T07:05:56.557Z,82.29
2024-02-26T07:08:58.876Z,81.95
2024-02-26T07:12:01.975Z,81.97
2024-02-26T07:15:04.804Z,81.73
2024-02-26T07:18:07.606Z,81.89
2024-02-26T07:21:10.129Z,81.53
2024-02-26T07:24:13.039Z,81.64
2024-02-26T07:27:15.410Z,81.47
2024-02-26T07:30:18.228Z,81.41
2024-02-26T07:33:20.927Z,81.48
2024-02-26T07:36:23.835Z,81.59
2024-02-26T07:39:26.111Z,81.50
2024-02-26T07:42:28.710Z,81.56
2024-02-26T07:45:31.007Z,81.47
2024-02-26T07:48:33.582Z,81.57
2024-02-26T07:51:36.408Z,81.75
2024-02-26T07:54:39.542Z,81.77
2024-02-26T07:57:45.226Z,81.60
2024-02-26T08:00:48.128Z,81.36
2024-02-26T08:03:50.333Z,81.60
2024-02-26T08:06:53.359Z,81.28
2024-02-26T08:09:55.849Z,81.23
2024-02-26T08:13:06.433Z,81.08
2024-02-26T08:16:09.095Z,81.06
2024-02-26T08:19:14.655Z,81.08
2024-02-26T08:22:18.464Z,81.07
2024-02-26T08:25:21.844Z,80.99
2024-02-26T08:28:24.526Z,81.15
2024-02-26T08:31:28.376Z,80.66
2024-02-26T08:34:30.762Z,80.98
2024-02-26T08:37:33.516Z,80.96
2024-02-26T08:40:35.646Z,80.65
2024-02-26T08:43:38.474Z,80.70
2024-02-26T08:46:40.648Z,80.74
2024-02-26T08:49:47.179Z,80.98
2024-02-26T08:52:52.098Z,81.12
2024-02-26T08:55:54.577Z,81.17
2024-02-26T08:58:58.786Z,81.24
2024-02-26T09:02:01.301Z,81.28
2024-02-26T09:05:03.894Z,81.24
2024-02-26T09:08:06.983Z,81.41
2024-02-26T09:11:09.614Z,81.25
2024-02-26T09:14:12.299Z,81.39
2024-02-26T09:17:14.883Z,81.08
2024-02-26T09:20:21.615Z,81.01
2024-02-26T09:23:23.901Z,80.82
2024-02-26T09:26:26.737Z,80.58
2024-02-26T09:29:28.985Z,80.73
2024-02-26T09:32:31.794Z,80.49
2024-02-26T09:35:33.929Z,80.48
2024-02-26T09:38:49.255Z,80.26
2024-02-26T09:41:59.077Z,80.09
2024-02-26T09:45:05.005Z,80.29
2024-02-26T09:48:10.246Z,80.08
2024-02-26T09:51:13.925Z,79.77
2024-02-26T09:54:17.541Z,79.62
2024-02-26T09:57:20.772Z,79.79
2024-02-26T10:00:23.944Z,79.71
2024-02-26T10:03:32.258Z,79.73
2024-02-26T10:06:35.491Z,79.69
2024-02-26T10:09:38.571Z,79.76
2024-02-26T10:12:40.818Z,79.54
2024-02-26T10:15:43.734Z,79.56
2024-02-26T10:18:58.973Z,79.26
2024-02-26T10:22:05.792Z,79.53
2024-02-26T10:25:09.667Z,79.19
2024-02-26T10:28:12.192Z,79.54
2024-02-26T10:31:16.979Z,79.20
2024-02-26T10:34:20.560Z,79.17
2024-02-26T10:37:25.927Z,78.97
2024-02-26T10:40:29.650Z,79.24
2024-02-26T10:43:32.051Z,78.81
2024-02-26T10:46:36.327Z,78.58
2024-02-26T10:49:39.418Z,78.46
2024-02-26T10:52:43.919Z,78.73
2024-02-26T10:55:51.092Z,78.15
2024-02-26T10:58:53.883Z,78.34
2024-02-26T11:01:57.013Z,78.63
2024-02-26T11:05:00.226Z,78.40
2024-02-26T11:08:04.099Z,78.53
2024-02-26T11:11:07.290Z,78.24
2024-02-26T11:14:11.351Z,78.57
2024-02-26T11:17:18.220Z,77.92
2024-02-26T11:20:21.241Z,78.25
2024-02-26T11:23:24.312Z,77.84
2024-02-26T11:26:29.011Z,77.70
2024-02-26T11:29:38.818Z,77.68
2024-02-26T11:32:41.063Z,77.65
2024-02-26T11:35:45.079Z,77.57
2024-02-26T11:38:50.226Z,77.81
2024-02-26T11:41:52.778Z,77.76
2024-02-26T11:44:55.380Z,77.60
2024-02-26T11:47:58.729Z,77.42
2024-02-26T11:51:00.924Z,77.19
2024-02-26T11:54:03.724Z,77.22
2024-02-26T11:57:06.076Z,76.98
2024-02-26T12:00:08.827Z,77.42
2024-02-26T12:03:13.552Z,77.30
2024-02-26T12:06:16.573Z,77.17
2024-02-26T12:09:45.474Z,76.93
2024-02-26T12:12:48.470Z,76.88
2024-02-26T12:15:53.446Z,76.90
2024-02-26T12:18:56.562Z,76.93
2024-02-26T12:21:59.036Z,76.89
2024-02-26T12:25:04.406Z,76.40
2024-02-26T12:28:06.796Z,76.43
2024-02-26T12:31:09.485Z,76.34
2024-02-26T12:34:12.419Z,76.61
2024-02-26T12:37:15.074Z,76.34
2024-02-26T12:40:17.639Z,76.76
2024-02-26T12:43:20.995Z,76.50
2024-02-26T12:46:23.607Z,76.58
2024-02-26T12:49:27.434Z,76.81
2024-02-26T12:52:32.813Z,76.67
2024-02-26T12:55:36.251Z,76.48
2024-02-26T12:58:41.027Z,76.51
2024-02-26T13:01:43.776Z,76.62
2024-02-26T13:04:46.402Z,76.84
2024-02-26T13:07:49.263Z,76.80
2024-02-26T13:10:52.688Z,76.78
2024-02-26T13:13:55.151Z,76.49
2024-02-26T13:16:58.289Z,76.55
2024-02-26T13:20:01.141Z,76.52
2024-02-26T13:23:13.083Z,75.93
2024-02-26T13:26:16.335Z,75.96
2024-02-26T13:29:20.392Z,76.32
2024-02-26T13:32:23.598Z,76.17
2024-02-26T13:35:25.855Z,75.63
2024-02-26T13:38:29.687Z,75.34
2024-02-26T13:41:32.020Z,75.69
2024-02-26T13:44:37.934Z,75.67
2024-02-26T13:47:42.000Z,75.96
2024-02-26T13:50:46.570Z,76.41
2024-02-26T13:53:49.832Z,75.66
2024-02-26T13:56:53.859Z,75.79
2024-02-26T13:59:57.280Z,75.71
2024-02-26T14:03:01.628Z,75.03
2024-02-26T14:06:04.912Z,74.75
2024-02-26T14:09:07.680Z,74.60
2024-02-26T14:12:09.959Z,75.03
2024-02-26T14:15:12.683Z,74.93
2024-02-26T14:18:14.910Z,75.08
2024-02-26T14:21:17.983Z,74.72
2024-02-26T14:24:20.166Z,74.96
2024-02-26T14:27:23.913Z,75.03
2024-02-26T14:30:27.975Z,74.81
2024-02-26T14:33:31.119Z,75.09
2024-02-26T14:36:33.432Z,75.43
2024-02-26T14:39:36.637Z,75.22
2024-02-26T14:42:39.364Z,75.07
2024-02-26T14:45:44.706Z,74.84
2024-02-26T14:48:47.042Z,74.97
2024-02-26T14:51:49.724Z,75.35
2024-02-26T14:54:52.919Z,74.96
2024-02-26T14:57:55.513Z,74.57
2024-02-26T15:00:58.034Z,74.61
2024-02-26T15:04:01.857Z,74.49
2024-02-26T15:07:05.077Z,74.56
2024-02-26T15:10:08.913Z,74.50
2024-02-26T15:13:11.224Z,74.25
2024-02-26T15:16:22.112Z,74.49
2024-02-26T15:19:24.524Z,74.62
2024-02-26T15:22:28.328Z,74.74
2024-02-26T15:25:31.188Z,74.89
2024-02-26T15:28:34.505Z,74.32
2024-02-26T15:31:37.550Z,74.66
2024-02-26T15:34:40.846Z,74.86
2024-02-26T15:37:43.274Z,75.26
2024-02-26T15:40:48.736Z,74.93
2024-02-26T15:43:51.808Z,75.27
2024-02-26T15:46:54.728Z,75.31
2024-02-26T15:49:57.938Z,75.10
2024-02-26T15:53:00.534Z,75.52
2024-02-26T15:56:02.688Z,75.55
2024-02-26T15:59:05.440Z,75.27
2024-02-26T16:02:07.903Z,74.75
2024-02-26T16:05:12.596Z,75.16
2024-02-26T16:08:23.430Z,74.92
2024-02-26T16:11:27.147Z,74.82
2024-02-26T16:14:52.166Z,74.63
2024-02-26T16:17:57.558Z,75.01
2024-02-26T16:21:00.351Z,74.82
2024-02-26T16:24:03.382Z,74.70
2024-02-26T16:27:05.766Z,74.79
2024-02-26T16:30:09.464Z,75.10
2024-02-26T16:33:11.802Z,74.92
2024-02-26T16:36:14.842Z,75.64
2024-02-26T16:39:18.459Z,75.05
2024-02-26T16:42:21.305Z,74.88
2024-02-26T16:45:24.552Z,74.91
2024-02-26T16:48:30.760Z,75.60
2024-02-26T16:51:33.090Z,75.38
2024-02-26T16:54:35.749Z,75.53
2024-02-26T16:57:38.010Z,74.62
2024-02-26T17:00:41.364Z,75.09
2024-02-26T17:03:43.755Z,75.16
2024-02-26T17:06:46.394Z,75.06
2024-02-26T17:09:48.748Z,75.07
2024-02-26T17:12:51.510Z,74.50
2024-02-26T17:15:54.136Z,75.32
2024-02-26T17:18:56.841Z,75.12
2024-02-26T17:21:59.143Z,74.57
2024-02-26T17:25:01.617Z,74.76
2024-02-26T17:28:04.847Z,74.63
2024-02-26T17:31:07.773Z,75.33
2024-02-26T17:34:12.147Z,75.50
2024-02-26T17:37:14.925Z,75.86
2024-02-26T17:40:17.224Z,75.21
2024-02-26T17:43:20.166Z,74.93
2024-02-26T17:46:22.255Z,74.79
2024-02-26T17:49:28.840Z,75.36
2024-02-26T17:52:37.180Z,75.14
2024-02-26T17:55:40.947Z,75.31
2024-02-26T17:58:43.847Z,75.88
2024-02-26T18:01:46.480Z,76.09
2024-02-26T18:04:48.754Z,75.63
2024-02-26T18:07:52.407Z,75.38
2024-02-26T18:10:54.715Z,75.42
2024-02-26T18:13:58.331Z,75.42
2024-02-26T18:17:00.598Z,75.49
2024-02-26T18:20:05.945Z,75.85
2024-02-26T18:23:08.247Z,75.76
2024-02-26T18:26:11.669Z,75.59
2024-02-26T18:29:14.149Z,75.68
2024-02-26T18:32:19.827Z,75.54
2024-02-26T18:35:21.903Z,75.35
2024-02-26T18:38:25.086Z,75.35
2024-02-26T18:41:27.313Z,75.35
2024-02-26T18:44:29.695Z,75.39
2024-02-26T18:47:32.299Z,75.52
2024-02-26T18:50:35.017Z,75.22
2024-02-26T18:53:37.157Z,75.99
2024-02-26T18:56:40.081Z,75.13
2024-02-26T18:59:44.624Z,76.01
2024-02-26T19:02:47.180Z,75.92
2024-02-26T19:05:49.380Z,75.70
2024-02-26T19:08:52.416Z,75.71
2024-02-26T19:11:56.850Z,75.37
2024-02-26T19:14:59.738Z,75.64
2024-02-26T19:18:02.208Z,74.88
2024-02-26T19:21:05.443Z,75.07
2024-02-26T19:24:08.066Z,74.97
2024-02-26T19:27:10.730Z,74.17
2024-02-26T19:30:13.435Z,75.05
2024-02-26T19:33:17.217Z,75.04
2024-02-26T19:36:20.821Z,75.30
2024-02-26T19:39:23.756Z,74.86
2024-02-26T19:42:27.340Z,75.81
2024-02-26T19:45:30.249Z,75.96
2024-02-26T19:48:32.507Z,75.87
2024-02-26T19:51:37.684Z,75.74
2024-02-26T19:54:41.339Z,75.72
2024-02-26T19:57:44.262Z,76.05
2024-02-26T20:00:46.947Z,76.09
2024-02-26T20:03:50.330Z,76.24
2024-02-26T20:06:52.923Z,75.39
2024-02-26T20:09:55.431Z,75.59
2024-02-26T20:12:59.931Z,74.73
2024-02-26T20:16:02.802Z,74.25
2024-02-26T20:19:10.426Z,75.15
2024-02-26T20:22:14.970Z,74.46
2024-02-26T20:25:17.594Z,74.14
2024-02-26T20:28:20.071Z,74.27
2024-02-26T20:31:22.344Z,74.27
2024-02-26T20:34:24.997Z,74.74
2024-02-26T20:37:29.491Z,73.88
2024-02-26T20:40:32.641Z,74.46
2024-02-26T20:43:35.589Z,74.18
2024-02-26T20:46:44.557Z,74.11
2024-02-26T20:49:47.546Z,74.63
2024-02-26T20:52:51.909Z,74.76
2024-02-26T20:55:54.978Z,73.63
2024-02-26T20:58:57.702Z,74.22
2024-02-26T21:01:59.884Z,73.60
2024-02-26T21:05:02.659Z,73.16
2024-02-26T21:08:11.345Z,73.57
2024-02-26T21:11:19.159Z,73.19
2024-02-26T21:14:21.598Z,72.89
2024-02-26T21:17:23.998Z,73.65
2024-02-26T21:20:28.983Z,74.35
2024-02-26T21:23:33.300Z,74.26
2024-02-26T21:26:35.492Z,73.94
2024-02-26T21:29:39.426Z,74.36
2024-02-26T21:32:42.072Z,74.17
2024-02-26T21:35:45.115Z,74.61
2024-02-26T21:38:50.707Z,74.92
2024-02-26T21:41:54.347Z,75.40
2024-02-26T21:44:56.585Z,75.07
2024-02-26T21:47:59.296Z,74.85
2024-02-26T21:51:05.510Z,74.85
2024-02-26T21:54:07.912Z,74.48
2024-02-26T21:57:10.095Z,74.56
2024-02-26T22:00:13.154Z,75.30
2024-02-26T22:03:15.506Z,76.75
2024-02-26T22:06:18.285Z,77.79
2024-02-26T22:09:21.402Z,76.60
2024-02-26T22:12:24.023Z,76.21
2024-02-26T22:15:27.005Z,76.85
2024-02-26T22:18:29.784Z,77.10
2024-02-26T22:21:35.921Z,76.23
2024-02-26T22:24:38.920Z,75.63
2024-02-26T22:27:41.205Z,75.97
2024-02-26T22:30:43.838Z,76.95
2024-02-26T22:33:46.841Z,75.80
2024-02-26T22:36:50.732Z,74.74
2024-02-26T22:39:53.028Z,74.06
2024-02-26T22:42:57.078Z,73.64
2024-02-26T22:45:59.349Z,72.80
2024-02-26T22:49:02.239Z,73.24
2024-02-26T22:52:04.772Z,73.47
2024-02-26T22:55:08.524Z,72.14
2024-02-26T22:58:10.746Z,72.84
2024-02-26T23:01:13.659Z,73.22
2024-02-26T23:04:16.483Z,72.71
2024-02-26T23:07:19.642Z,72.80
2024-02-26T23:10:22.412Z,73.49
2024-02-26T23:13:25.429Z,72.68
2024-02-26T23:16:29.762Z,72.59
2024-02-26T23:19:35.302Z,73.22
2024-02-26T23:22:38.579Z,72.68
2024-02-26T23:25:41.068Z,72.93
2024-02-26T23:28:43.625Z,73.27
2024-02-26T23:31:46.419Z,73.77
2024-02-26T23:34:49.657Z,73.80
2024-02-26T23:37:52.360Z,73.60
2024-02-26T23:40:54.534Z,74.43
2024-02-26T23:43:57.203Z,74.04
2024-02-26T23:46:59.712Z,73.97
2024-02-26T23:50:02.379Z,74.49
2024-02-26T23:53:05.542Z,73.73
2024-02-26T23:56:08.160Z,74.94
2024-02-26T23:59:10.760Z,72.31
